createdAt,value
2023-01-20T00:01:02.918Z,4.35
2023-01-20T00:04:34.671Z,4.43
2023-01-20T00:08:13.028Z,4.43
2023-01-20T00:15:57.851Z,4.50
2023-01-20T00:19:59.676Z,4.45
2023-01-20T00:23:06.223Z,4.05
2023-01-20T00:26:11.663Z,4.32
2023-01-20T00:29:22.664Z,5.38
2023-01-20T00:32:27.358Z,4.45
2023-01-20T00:35:30.916Z,4.65
2023-01-20T00:38:36.495Z,4.50
2023-01-20T00:41:41.285Z,4.47
2023-01-20T00:44:50.516Z,5.28
2023-01-20T00:53:37.946Z,5.25
2023-01-20T00:56:46.524Z,5.18
2023-01-20T00:59:56.271Z,5.40
2023-01-20T01:02:59.840Z,5.30
2023-01-20T01:06:10.563Z,4.90
2023-01-20T01:09:34.036Z,5.30
2023-01-20T01:12:44.776Z,6.07
2023-01-20T01:15:51.340Z,5.50
2023-01-20T01:18:55.588Z,5.35
2023-01-20T01:21:58.939Z,6.45
2023-01-20T01:28:59.308Z,5.55
2023-01-20T01:32:03.159Z,6.82
2023-01-20T01:35:08.845Z,6.97
2023-01-20T01:38:13.346Z,6.18
2023-01-20T01:41:20.434Z,6.90
2023-01-20T01:44:34.852Z,6.93
2023-01-20T01:47:42.229Z,7.20
2023-01-20T01:50:53.163Z,7.20
2023-01-20T01:53:58.523Z,8.18
2023-01-20T01:57:02.997Z,7.10
2023-01-20T02:00:08.600Z,8.13
2023-01-20T02:03:22.990Z,8.00
2023-01-20T02:06:30.215Z,7.43
2023-01-20T02:09:40.281Z,8.55
2023-01-20T02:12:47.357Z,7.00
2023-01-20T02:15:55.963Z,8.30
2023-01-20T02:19:10.549Z,7.10
2023-01-20T02:22:22.110Z,9.27
2023-01-20T02:25:40.381Z,8.10
2023-01-20T02:28:54.877Z,8.02
2023-01-20T02:32:09.907Z,8.05
2023-01-20T02:35:25.590Z,7.82
2023-01-20T02:38:34.916Z,7.70
2023-01-20T02:41:50.364Z,7.93
2023-01-20T02:45:14.060Z,8.45
2023-01-20T02:48:26.717Z,7.85
2023-01-20T02:51:35.329Z,8.40
2023-01-20T02:54:46.495Z,8.40
2023-01-20T02:57:51.343Z,8.20
2023-01-20T03:00:57.286Z,7.93
2023-01-20T03:04:04.441Z,8.88
2023-01-20T03:07:15.989Z,8.00
2023-01-20T03:10:26.583Z,8.55
2023-01-20T03:13:37.166Z,9.25
2023-01-20T03:16:43.162Z,8.55
2023-01-20T03:19:55.197Z,8.80
2023-01-20T03:23:08.734Z,10.27
2023-01-20T03:26:14.353Z,9.88
2023-01-20T03:29:35.716Z,9.25
2023-01-20T03:32:50.457Z,8.82
2023-01-20T03:35:57.596Z,8.43
2023-01-20T03:39:04.839Z,9.13
2023-01-20T03:42:13.797Z,9.18
2023-01-20T03:45:28.018Z,8.07
2023-01-20T03:48:42.803Z,9.10
2023-01-20T03:51:55.458Z,9.98
2023-01-20T03:55:11.480Z,8.40
2023-01-20T03:58:17.948Z,8.60
2023-01-20T04:01:23.892Z,8.88
2023-01-20T04:04:29.642Z,8.93
2023-01-20T04:07:42.295Z,9.23
2023-01-20T04:10:54.206Z,9.40
2023-01-20T04:14:00.145Z,8.85
2023-01-20T04:27:48.895Z,8.43
2023-01-20T04:30:52.360Z,9.43
2023-01-20T04:33:55.681Z,8.52
2023-01-20T04:36:58.997Z,9.27
2023-01-20T04:40:16.322Z,8.75
2023-01-20T04:48:00.653Z,8.07
2023-01-20T04:51:13.355Z,8.60
2023-01-20T04:58:56.892Z,8.50
2023-01-20T05:05:23.371Z,8.32
2023-01-20T05:08:29.626Z,8.25
2023-01-20T05:11:36.295Z,7.88
2023-01-20T05:14:39.604Z,8.65
2023-01-20T05:17:42.932Z,9.35
2023-01-20T05:20:58.467Z,7.32
2023-01-20T05:24:33.537Z,7.97
2023-01-20T05:27:38.604Z,8.63
2023-01-20T05:30:52.549Z,7.13
2023-01-20T05:34:36.794Z,8.30
2023-01-20T05:43:00.264Z,8.77
2023-01-20T05:46:05.335Z,8.25
2023-01-20T05:49:09.333Z,8.07
2023-01-20T05:52:15.773Z,8.55
2023-01-20T05:59:21.720Z,8.88
2023-01-20T06:02:56.342Z,7.28
2023-01-20T06:06:28.854Z,7.72
2023-01-20T06:09:46.804Z,8.75
2023-01-20T06:13:17.859Z,8.48
2023-01-20T06:20:31.504Z,7.63
2023-01-20T06:23:37.070Z,7.32
2023-01-20T06:26:52.377Z,8.00
2023-01-20T06:29:56.047Z,7.13
2023-01-20T06:33:00.495Z,9.20
2023-01-20T06:36:06.937Z,8.07
2023-01-20T06:39:10.590Z,7.78
2023-01-20T06:42:20.125Z,7.10
2023-01-20T06:45:26.996Z,8.07
2023-01-20T06:48:39.731Z,7.53
2023-01-20T06:51:44.160Z,8.48
2023-01-20T06:54:51.838Z,7.00
2023-01-20T06:57:57.420Z,7.50
2023-01-20T07:01:09.920Z,7.18
2023-01-20T07:04:14.814Z,7.43
2023-01-20T07:07:27.991Z,7.78
2023-01-20T07:10:31.514Z,8.77
2023-01-20T07:13:38.182Z,8.18
2023-01-20T07:16:45.429Z,8.43
2023-01-20T07:19:49.657Z,7.47
2023-01-20T07:22:55.037Z,7.55
2023-01-20T07:25:59.768Z,7.32
2023-01-20T07:29:04.681Z,7.47
2023-01-20T07:32:12.515Z,8.25
2023-01-20T07:35:17.079Z,8.63
2023-01-20T07:38:21.495Z,8.13
2023-01-20T07:41:25.110Z,7.95
2023-01-20T07:44:31.695Z,7.03
2023-01-20T07:47:35.307Z,7.50
2023-01-20T07:50:40.537Z,7.65
2023-01-20T07:53:46.552Z,8.60
2023-01-20T07:56:51.144Z,7.63
2023-01-20T07:59:59.960Z,8.10
2023-01-20T08:03:04.542Z,8.00
2023-01-20T08:06:09.308Z,8.70
2023-01-20T08:09:14.594Z,7.88
2023-01-20T08:12:40.111Z,8.63
2023-01-20T08:38:29.467Z,7.80
2023-01-20T08:41:43.697Z,8.27
2023-01-20T08:45:02.217Z,7.97
2023-01-20T08:48:28.620Z,8.70
2023-01-20T08:51:33.421Z,7.60
2023-01-20T08:54:36.809Z,7.72
2023-01-20T09:06:06.040Z,7.00
2023-01-20T09:13:48.888Z,7.10
2023-01-20T09:21:46.224Z,7.78
2023-01-20T09:30:07.910Z,6.53
2023-01-20T09:34:08.303Z,6.50
2023-01-20T09:46:18.484Z,7.13
2023-01-20T10:03:39.274Z,7.05
2023-01-20T10:16:37.859Z,6.63
2023-01-20T10:19:51.025Z,7.75
2023-01-20T10:27:28.580Z,7.20
2023-01-20T10:39:21.432Z,8.07
2023-01-20T10:56:10.280Z,6.63
2023-01-20T11:00:14.048Z,8.07
2023-01-20T11:04:10.620Z,7.55
2023-01-20T11:33:08.626Z,6.13
2023-01-20T11:43:56.058Z,6.93
2023-01-20T11:47:17.755Z,7.15
2023-01-20T11:50:26.170Z,6.65
2023-01-20T11:53:44.887Z,6.20
2023-01-20T12:05:08.507Z,7.10
2023-01-20T12:08:18.079Z,6.70
2023-01-20T12:11:50.358Z,7.25
2023-01-20T12:15:22.332Z,5.95
2023-01-20T12:18:45.428Z,5.72
2023-01-20T12:22:02.694Z,6.13
2023-01-20T12:25:25.768Z,6.53
2023-01-20T12:28:38.747Z,5.68
2023-01-20T12:35:32.551Z,6.20
2023-01-20T12:39:13.112Z,6.60
2023-01-20T12:53:54.570Z,6.15
2023-01-20T13:46:43.903Z,5.55
2023-01-20T14:17:15.102Z,7.07
2023-01-20T14:20:24.922Z,7.50
2023-01-20T14:23:31.862Z,7.10
2023-01-20T14:26:35.439Z,7.38
2023-01-20T14:29:38.775Z,7.13
2023-01-20T14:32:42.739Z,7.00
2023-01-20T14:35:55.629Z,8.38
2023-01-20T14:39:12.848Z,6.75
2023-01-20T14:42:36.775Z,7.13
2023-01-20T14:45:46.588Z,8.00
2023-01-20T14:52:36.217Z,7.50
2023-01-20T14:55:43.188Z,7.60
2023-01-20T14:58:57.771Z,9.65
2023-01-20T15:06:03.468Z,9.82
2023-01-20T15:10:13.630Z,7.65
2023-01-20T15:13:29.916Z,7.40
2023-01-20T15:16:41.603Z,6.45
2023-01-20T15:19:47.077Z,7.07
2023-01-20T15:22:51.107Z,7.88
2023-01-20T15:25:59.700Z,7.53
2023-01-20T15:29:21.003Z,6.80
2023-01-20T15:32:24.464Z,6.90
2023-01-20T15:35:28.016Z,8.02
2023-01-20T15:38:32.881Z,7.70
2023-01-20T15:41:38.958Z,7.22
2023-01-20T15:44:47.066Z,8.02
2023-01-20T15:47:58.626Z,8.05
2023-01-20T15:51:07.387Z,10.13
2023-01-20T15:54:11.681Z,8.98
2023-01-20T15:57:19.105Z,9.68
2023-01-20T16:00:29.298Z,8.60
2023-01-20T16:03:39.222Z,9.27
2023-01-20T16:06:43.721Z,9.63
2023-01-20T16:09:47.666Z,8.90
2023-01-20T16:12:53.492Z,10.48
2023-01-20T16:16:02.825Z,11.15
2023-01-20T16:19:06.977Z,13.60
2023-01-20T16:22:11.498Z,14.38
2023-01-20T16:25:15.137Z,14.02
2023-01-20T16:28:21.315Z,12.38
2023-01-20T16:31:25.310Z,11.38
2023-01-20T16:34:34.029Z,12.40
2023-01-20T16:37:38.351Z,13.73
2023-01-20T16:40:46.160Z,13.73
2023-01-20T16:43:51.068Z,12.77
2023-01-20T16:47:00.698Z,11.65
2023-01-20T16:50:18.853Z,12.13
2023-01-20T16:53:47.655Z,14.10
2023-01-20T16:56:54.269Z,11.50
2023-01-20T16:59:59.161Z,10.85
2023-01-20T17:03:26.357Z,10.95
2023-01-20T17:06:31.499Z,9.68
2023-01-20T17:09:42.308Z,9.35
2023-01-20T17:12:54.962Z,9.32
2023-01-20T17:16:20.278Z,9.68
2023-01-20T17:19:30.863Z,8.70
2023-01-20T17:22:45.587Z,9.93
2023-01-20T17:25:52.812Z,8.77
2023-01-20T17:29:12.823Z,10.73
2023-01-20T17:32:20.304Z,12.15
2023-01-20T17:35:27.829Z,12.32
2023-01-20T17:38:36.353Z,11.60
2023-01-20T17:41:46.425Z,11.88
2023-01-20T17:44:49.774Z,12.65
2023-01-20T17:48:04.523Z,7.70
2023-01-20T17:51:13.116Z,8.57
2023-01-20T17:54:16.942Z,8.02
2023-01-20T17:57:20.671Z,22.23
2023-01-20T18:00:24.407Z,14.38
2023-01-20T18:03:29.308Z,10.77
2023-01-20T18:06:35.050Z,9.88
2023-01-20T18:09:39.332Z,9.68
2023-01-20T18:12:43.686Z,8.57
2023-01-20T18:15:47.095Z,10.05
2023-01-20T18:18:53.551Z,11.23
2023-01-20T18:21:57.659Z,11.13
2023-01-20T18:25:01.456Z,11.60
2023-01-20T18:28:05.290Z,12.90
2023-01-20T18:31:09.831Z,11.60
2023-01-20T18:34:18.208Z,9.70
2023-01-20T18:37:22.069Z,9.80
2023-01-20T18:40:25.462Z,9.88
2023-01-20T18:43:29.100Z,9.48
2023-01-20T18:46:32.865Z,9.38
2023-01-20T18:49:37.844Z,9.25
2023-01-20T18:52:41.431Z,12.85
2023-01-20T18:56:09.952Z,14.07
2023-01-20T18:59:19.550Z,8.73
2023-01-20T19:06:05.503Z,8.57
2023-01-20T19:09:09.828Z,10.20
2023-01-20T19:12:14.241Z,10.88
2023-01-20T19:15:17.957Z,9.70
2023-01-20T19:18:21.605Z,9.40
2023-01-20T19:21:27.332Z,9.38
2023-01-20T19:24:33.997Z,8.60
2023-01-20T19:27:37.816Z,9.45
2023-01-20T19:30:41.888Z,9.45
2023-01-20T19:33:45.975Z,9.23
2023-01-20T19:36:51.026Z,9.90
2023-01-20T19:39:54.681Z,8.07
2023-01-20T19:43:00.693Z,8.57
2023-01-20T19:46:04.549Z,8.90
2023-01-20T19:49:08.096Z,10.27
2023-01-20T19:52:13.135Z,9.27
2023-01-20T19:55:18.506Z,10.25
2023-01-20T19:58:22.144Z,11.55
2023-01-20T20:01:26.512Z,10.73
2023-01-20T20:04:30.074Z,11.13
2023-01-20T20:07:35.350Z,11.13
2023-01-20T20:10:42.514Z,11.30
2023-01-20T20:13:46.415Z,10.32
2023-01-20T20:16:50.370Z,12.43
2023-01-20T20:19:59.356Z,11.05
2023-01-20T20:23:04.158Z,10.80
2023-01-20T20:26:07.763Z,11.50
2023-01-20T20:29:14.368Z,10.18
2023-01-20T20:32:17.895Z,9.95
2023-01-20T20:35:21.609Z,10.30
2023-01-20T20:38:26.951Z,9.30
2023-01-20T20:41:31.796Z,9.57
2023-01-20T20:44:35.602Z,9.23
2023-01-20T20:47:39.259Z,10.73
2023-01-20T20:50:43.024Z,26.33
2023-01-20T20:53:48.358Z,10.88
2023-01-20T20:56:52.547Z,12.52
2023-01-20T20:59:59.394Z,11.13
2023-01-20T21:03:12.167Z,12.25
2023-01-20T21:06:50.995Z,9.93
2023-01-20T21:10:18.909Z,10.32
2023-01-20T21:13:31.890Z,10.23
2023-01-20T21:16:48.907Z,12.18
2023-01-20T21:20:01.256Z,11.85
2023-01-20T21:23:34.887Z,8.38
2023-01-20T21:26:43.195Z,19.80
2023-01-20T21:29:50.290Z,13.27
2023-01-20T21:33:06.565Z,15.27
2023-01-20T21:36:25.616Z,9.40
2023-01-20T21:39:38.206Z,8.95
2023-01-20T21:43:11.677Z,9.35
2023-01-20T21:46:15.632Z,9.05
2023-01-20T21:49:37.178Z,9.88
2023-01-20T21:52:59.036Z,8.15
2023-01-20T21:56:13.944Z,10.02
2023-01-20T21:59:23.409Z,9.38
2023-01-20T22:02:37.714Z,10.65
2023-01-20T22:05:43.982Z,9.40
2023-01-20T22:09:21.316Z,8.57
2023-01-20T22:12:35.497Z,7.35
2023-01-20T22:15:43.050Z,8.02
2023-01-20T22:18:52.880Z,9.30
2023-01-20T22:21:58.571Z,8.77
2023-01-20T22:25:10.683Z,9.18
2023-01-20T22:28:16.545Z,9.00
2023-01-20T22:31:29.035Z,8.57
2023-01-20T22:34:38.304Z,8.18
2023-01-20T22:37:42.261Z,9.15
2023-01-20T22:40:48.950Z,8.75
2023-01-20T22:43:55.476Z,9.68
2023-01-20T22:47:01.721Z,9.13
2023-01-20T22:50:10.247Z,9.45
2023-01-20T22:53:14.829Z,9.50
2023-01-20T22:56:21.084Z,9.70
2023-01-20T22:59:24.685Z,9.57
2023-01-20T23:02:33.537Z,11.38
2023-01-20T23:05:40.946Z,10.20
2023-01-20T23:08:45.017Z,9.18
2023-01-20T23:11:49.416Z,9.13
2023-01-20T23:15:02.499Z,9.05
2023-01-20T23:18:07.661Z,8.95
2023-01-20T23:21:12.892Z,7.63
2023-01-20T23:24:16.276Z,9.05
2023-01-20T23:27:19.818Z,8.98
2023-01-20T23:30:23.285Z,8.43
2023-01-20T23:33:28.140Z,9.57
2023-01-20T23:36:31.498Z,9.88
2023-01-20T23:39:35.788Z,9.85
2023-01-20T23:42:39.331Z,9.13
2023-01-20T23:45:42.784Z,9.15
2023-01-20T23:48:48.070Z,9.88
2023-01-20T23:51:51.427Z,9.98
2023-01-20T23:54:55.073Z,10.27
2023-01-20T23:57:58.449Z,10.95
